Naniwa Maru No.21 — JG5648 — position and weather

sailwx.info

Track history (hours):
 
Tides and Currents Weather Stations Pressure Air Temp Water Temp Dewpoint Dewpoint Depression Visibility Wind Speed Wind Dir Waves Ship Positions

Naniwa Maru No.21

Last reported at 2014-Nov-28 00:32 UTC. Time now 2014-Nov-28 01:32 UTC.
Position N 33°38' E 130°21'.

Length 71 m; draft 5.2 m.

Type: Tanker. MMSI: 431301595.

Date/timePositionNaut miles runAvg speedWind from/ knotsBaromVisibWave heightAir tempDewpointWater temp
2014-Nov-28 00:32N 33°38' E 130°21'0 0.0
2014-Nov-27 23:32N 33°38' E 130°21'0 0.0
2014-Nov-27 22:25N 33°38' E 130°21'0 0.0
2014-Nov-27 21:28N 33°38' E 130°21'0 0.0
2014-Nov-27 20:31N 33°37' E 130°21'0 0.0
2014-Nov-27 19:31N 33°38' E 130°21'3 3.2
2014-Nov-27 18:33N 33°39' E 130°18'1211.7
2014-Nov-27 17:33N 33°50' E 130°20'6 0.2
2014-Nov-26 07:28N 33°52' E 130°27'1213.4
2014-Nov-26 06:32N 33°43' E 130°17'8 8.5
2014-Nov-26 05:34N 33°36' E 130°23'0 0.0
2014-Nov-26 04:33N 33°36' E 130°23'0 0.0
2014-Nov-26 03:33N 33°36' E 130°23'0 0.0
2014-Nov-26 02:33N 33°36' E 130°23'0 0.0
2014-Nov-26 01:33N 33°36' E 130°23'0 0.0
2014-Nov-26 00:33N 33°36' E 130°23'0 0.4
2014-Nov-25 23:33N 33°36' E 130°23'2 1.9
2014-Nov-25 22:33N 33°37' E 130°21'0 0.0
2014-Nov-25 21:31N 33°37' E 130°21'0 0.0
2014-Nov-25 20:31N 33°37' E 130°21'0 0.0
2014-Nov-25 19:31N 33°37' E 130°21'0 0.0
2014-Nov-25 18:28N 33°37' E 130°21'0 0.0
2014-Nov-25 17:31N 33°37' E 130°21'0 0.0
2014-Nov-25 16:31N 33°37' E 130°21'0 0.0
2014-Nov-25 15:25N 33°37' E 130°21'0 0.0
2014-Nov-25 14:31N 33°37' E 130°21'0 0.0
2014-Nov-25 13:31N 33°37' E 130°21'0 0.1
2014-Nov-25 12:31N 33°37' E 130°21'0 0.0
2014-Nov-25 11:28N 33°37' E 130°21'229 7.8
2014-Nov-24 06:04N 34°08' E 134°54'913.4
2014-Nov-24 05:25N 34°08' E 135°05'2 0.5
2014-Nov-24 00:22N 34°07' E 135°07'3 3.8
2014-Nov-23 23:33N 34°10' E 135°07'3 3.2
2014-Nov-23 22:33N 34°13' E 135°09'0 0.0
2014-Nov-23 21:33N 34°13' E 135°09'0 0.0
2014-Nov-23 20:33N 34°13' E 135°09'0 0.0
2014-Nov-23 19:30N 34°13' E 135°09'0 0.0
2014-Nov-23 18:33N 34°13' E 135°09'0 0.0
2014-Nov-23 17:33N 34°13' E 135°09'0 0.0
2014-Nov-23 16:33N 34°13' E 135°09'0 0.0
2014-Nov-23 15:33N 34°13' E 135°09'0 0.0
2014-Nov-23 14:33N 34°13' E 135°09'0 0.0
2014-Nov-23 13:33N 34°13' E 135°09'0 0.0
2014-Nov-23 12:33N 34°13' E 135°09'0 0.0
2014-Nov-23 11:33N 34°13' E 135°09'0 0.0
2014-Nov-23 10:33N 34°13' E 135°09'0 0.0
2014-Nov-23 09:33N 34°13' E 135°09'0 0.0
2014-Nov-23 08:33N 34°13' E 135°09'0 0.0
2014-Nov-23 07:33N 34°13' E 135°09'0 0.0
2014-Nov-23 06:33N 34°13' E 135°09'0 0.0
2014-Nov-23 05:33N 34°13' E 135°09'0 0.0
2014-Nov-23 04:33N 34°13' E 135°09'0 0.0
2014-Nov-23 03:33N 34°13' E 135°09'0 0.0
2014-Nov-23 02:33N 34°13' E 135°09'0 0.1
2014-Nov-23 01:34N 34°13' E 135°08'1512.1
2014-Nov-23 00:21N 34°09' E 134°51'22711.4
2014-Nov-22 04:29N 33°46' E 130°20'910.1
2014-Nov-22 03:33N 33°37' E 130°23'0 0.3
2014-Nov-22 02:30N 33°36' E 130°23'0 0.0
2014-Nov-22 01:33N 33°36' E 130°23'0 0.0
2014-Nov-22 00:33N 33°36' E 130°23'0 0.0
2014-Nov-21 23:27N 33°36' E 130°23'1 1.5
2014-Nov-21 22:33N 33°37' E 130°22'0 0.0
2014-Nov-21 21:32N 33°37' E 130°22'0 0.0
2014-Nov-21 20:23N 33°37' E 130°22'0 0.0
2014-Nov-21 19:29N 33°37' E 130°22'0 0.0
2014-Nov-21 18:08N 33°37' E 130°22'0 0.1
2014-Nov-21 17:26N 33°37' E 130°22'0 0.0
2014-Nov-21 16:32N 33°37' E 130°22'0 0.0
2014-Nov-21 15:32N 33°37' E 130°22'0 0.0
2014-Nov-21 14:32N 33°37' E 130°22'0 0.0
2014-Nov-21 13:14N 33°37' E 130°22'5 7.3
2014-Nov-21 12:32N 33°40' E 130°17'236 8.4
2014-Nov-20 08:30N 34°08' E 134°59'7 1.2
2014-Nov-20 02:32N 34°07' E 135°08'9 8.7
2014-Nov-20 01:33N 34°08' E 134°57'23011.4
2014-Nov-19 05:24N 33°47' E 130°21'910.4
2014-Nov-19 04:33N 33°39' E 130°19'4 3.8
2014-Nov-19 03:32N 33°36' E 130°23'0 0.0
2014-Nov-19 02:32N 33°36' E 130°23'0 0.0
2014-Nov-19 01:32N 33°36' E 130°23'0 0.0
2014-Nov-19 00:32N 33°36' E 130°23'0 0.2
2014-Nov-18 23:32N 33°36' E 130°23'1 1.4
2014-Nov-18 22:32N 33°37' E 130°22'0 0.0
2014-Nov-18 21:29N 33°37' E 130°22'0 0.0
2014-Nov-18 19:26N 33°37' E 130°22'0 0.0
2014-Nov-18 18:32N 33°37' E 130°22'0 0.0
2014-Nov-18 17:14N 33°37' E 130°22'0 0.1
2014-Nov-18 16:23N 33°37' E 130°22'0 0.0
2014-Nov-18 15:29N 33°37' E 130°22'0 0.0
2014-Nov-18 14:26N 33°37' E 130°22'0 0.0
2014-Nov-18 13:32N 33°37' E 130°22'0 0.0
2014-Nov-18 12:29N 33°37' E 130°22'0 0.1
2014-Nov-18 11:09N 33°37' E 130°22'0 0.0
2014-Nov-18 10:29N 33°37' E 130°22'0 0.0
2014-Nov-18 09:05N 33°37' E 130°22'0 0.0
2014-Nov-18 08:11N 33°37' E 130°22'0 0.0
2014-Nov-18 07:20N 33°37' E 130°22'0 0.0
2014-Nov-18 06:23N 33°37' E 130°22'0 0.0
2014-Nov-18 05:32N 33°37' E 130°22'1 0.6
2014-Nov-18 04:33N 33°38' E 130°21'10 9.6
2014-Nov-18 03:32N 33°47' E 130°21'  
Track history (hours):
 
Tides and Currents Weather Stations Pressure Air Temp Water Temp Dewpoint Dewpoint Depression Visibility Wind Speed Wind Dir Waves Ship Positions

Naniwa Maru No.21

Last reported at 2014-Nov-28 00:32 UTC. Time now 2014-Nov-28 01:32 UTC.
Position N 33°38' E 130°21'.

Length 71 m; draft 5.2 m.

Type: Tanker. MMSI: 431301595.

Date/timePositionNaut miles runAvg speedWind from/ knotsBaromVisibWave heightAir tempDewpointWater temp
2014-Nov-28 00:32N 33°38' E 130°21'0 0.0
2014-Nov-27 23:32N 33°38' E 130°21'0 0.0
2014-Nov-27 22:25N 33°38' E 130°21'0 0.0
2014-Nov-27 21:28N 33°38' E 130°21'0 0.0
2014-Nov-27 20:31N 33°37' E 130°21'0 0.0
2014-Nov-27 19:31N 33°38' E 130°21'3 3.2
2014-Nov-27 18:33N 33°39' E 130°18'1211.7
2014-Nov-27 17:33N 33°50' E 130°20'6 0.2
2014-Nov-26 07:28N 33°52' E 130°27'1213.4
2014-Nov-26 06:32N 33°43' E 130°17'8 8.5
2014-Nov-26 05:34N 33°36' E 130°23'0 0.0
2014-Nov-26 04:33N 33°36' E 130°23'0 0.0
2014-Nov-26 03:33N 33°36' E 130°23'0 0.0
2014-Nov-26 02:33N 33°36' E 130°23'0 0.0
2014-Nov-26 01:33N 33°36' E 130°23'0 0.0
2014-Nov-26 00:33N 33°36' E 130°23'0 0.4
2014-Nov-25 23:33N 33°36' E 130°23'2 1.9
2014-Nov-25 22:33N 33°37' E 130°21'0 0.0
2014-Nov-25 21:31N 33°37' E 130°21'0 0.0
2014-Nov-25 20:31N 33°37' E 130°21'0 0.0
2014-Nov-25 19:31N 33°37' E 130°21'0 0.0
2014-Nov-25 18:28N 33°37' E 130°21'0 0.0
2014-Nov-25 17:31N 33°37' E 130°21'0 0.0
2014-Nov-25 16:31N 33°37' E 130°21'0 0.0
2014-Nov-25 15:25N 33°37' E 130°21'0 0.0
2014-Nov-25 14:31N 33°37' E 130°21'0 0.0
2014-Nov-25 13:31N 33°37' E 130°21'0 0.1
2014-Nov-25 12:31N 33°37' E 130°21'0 0.0
2014-Nov-25 11:28N 33°37' E 130°21'229 7.8
2014-Nov-24 06:04N 34°08' E 134°54'913.4
2014-Nov-24 05:25N 34°08' E 135°05'2 0.5
2014-Nov-24 00:22N 34°07' E 135°07'3 3.8
2014-Nov-23 23:33N 34°10' E 135°07'3 3.2
2014-Nov-23 22:33N 34°13' E 135°09'0 0.0
2014-Nov-23 21:33N 34°13' E 135°09'0 0.0
2014-Nov-23 20:33N 34°13' E 135°09'0 0.0
2014-Nov-23 19:30N 34°13' E 135°09'0 0.0
2014-Nov-23 18:33N 34°13' E 135°09'0 0.0
2014-Nov-23 17:33N 34°13' E 135°09'0 0.0
2014-Nov-23 16:33N 34°13' E 135°09'0 0.0
2014-Nov-23 15:33N 34°13' E 135°09'0 0.0
2014-Nov-23 14:33N 34°13' E 135°09'0 0.0
2014-Nov-23 13:33N 34°13' E 135°09'0 0.0
2014-Nov-23 12:33N 34°13' E 135°09'0 0.0
2014-Nov-23 11:33N 34°13' E 135°09'0 0.0
2014-Nov-23 10:33N 34°13' E 135°09'0 0.0
2014-Nov-23 09:33N 34°13' E 135°09'0 0.0
2014-Nov-23 08:33N 34°13' E 135°09'0 0.0
2014-Nov-23 07:33N 34°13' E 135°09'0 0.0
2014-Nov-23 06:33N 34°13' E 135°09'0 0.0
2014-Nov-23 05:33N 34°13' E 135°09'0 0.0
2014-Nov-23 04:33N 34°13' E 135°09'0 0.0
2014-Nov-23 03:33N 34°13' E 135°09'0 0.0
2014-Nov-23 02:33N 34°13' E 135°09'0 0.1
2014-Nov-23 01:34N 34°13' E 135°08'1512.1
2014-Nov-23 00:21N 34°09' E 134°51'22711.4
2014-Nov-22 04:29N 33°46' E 130°20'910.1
2014-Nov-22 03:33N 33°37' E 130°23'0 0.3
2014-Nov-22 02:30N 33°36' E 130°23'0 0.0
2014-Nov-22 01:33N 33°36' E 130°23'0 0.0
2014-Nov-22 00:33N 33°36' E 130°23'0 0.0
2014-Nov-21 23:27N 33°36' E 130°23'1 1.5
2014-Nov-21 22:33N 33°37' E 130°22'0 0.0
2014-Nov-21 21:32N 33°37' E 130°22'0 0.0
2014-Nov-21 20:23N 33°37' E 130°22'0 0.0
2014-Nov-21 19:29N 33°37' E 130°22'0 0.0
2014-Nov-21 18:08N 33°37' E 130°22'0 0.1
2014-Nov-21 17:26N 33°37' E 130°22'0 0.0
2014-Nov-21 16:32N 33°37' E 130°22'0 0.0
2014-Nov-21 15:32N 33°37' E 130°22'0 0.0
2014-Nov-21 14:32N 33°37' E 130°22'0 0.0
2014-Nov-21 13:14N 33°37' E 130°22'5 7.3
2014-Nov-21 12:32N 33°40' E 130°17'236 8.4
2014-Nov-20 08:30N 34°08' E 134°59'7 1.2
2014-Nov-20 02:32N 34°07' E 135°08'9 8.7
2014-Nov-20 01:33N 34°08' E 134°57'23011.4
2014-Nov-19 05:24N 33°47' E 130°21'910.4
2014-Nov-19 04:33N 33°39' E 130°19'4 3.8
2014-Nov-19 03:32N 33°36' E 130°23'0 0.0
2014-Nov-19 02:32N 33°36' E 130°23'0 0.0
2014-Nov-19 01:32N 33°36' E 130°23'0 0.0
2014-Nov-19 00:32N 33°36' E 130°23'0 0.2
2014-Nov-18 23:32N 33°36' E 130°23'1 1.4
2014-Nov-18 22:32N 33°37' E 130°22'0 0.0
2014-Nov-18 21:29N 33°37' E 130°22'0 0.0
2014-Nov-18 19:26N 33°37' E 130°22'0 0.0
2014-Nov-18 18:32N 33°37' E 130°22'0 0.0
2014-Nov-18 17:14N 33°37' E 130°22'0 0.1
2014-Nov-18 16:23N 33°37' E 130°22'0 0.0
2014-Nov-18 15:29N 33°37' E 130°22'0 0.0
2014-Nov-18 14:26N 33°37' E 130°22'0 0.0
2014-Nov-18 13:32N 33°37' E 130°22'0 0.0
2014-Nov-18 12:29N 33°37' E 130°22'0 0.1
2014-Nov-18 11:09N 33°37' E 130°22'0 0.0
2014-Nov-18 10:29N 33°37' E 130°22'0 0.0
2014-Nov-18 09:05N 33°37' E 130°22'0 0.0
2014-Nov-18 08:11N 33°37' E 130°22'0 0.0
2014-Nov-18 07:20N 33°37' E 130°22'0 0.0
2014-Nov-18 06:23N 33°37' E 130°22'0 0.0
2014-Nov-18 05:32N 33°37' E 130°22'1 0.6
2014-Nov-18 04:33N 33°38' E 130°21'10 9.6
2014-Nov-18 03:32N 33°47' E 130°21'  

Dump ship's entire track history